sensor_id;sensor_type;location;lat;lon;timestamp;pressure;altitude;pressure_sealevel;temperature;humidity
70506;BME280;58032;49.820;6.274;2023-05-03T00:01:08;98563.19;;;4.08;100.00
70506;BME280;58032;49.820;6.274;2023-05-03T00:03:35;98561.16;;;4.05;100.00
70506;BME280;58032;49.820;6.274;2023-05-03T00:06:13;98573.13;;;4.06;100.00
70506;BME280;58032;49.820;6.274;2023-05-03T00:08:41;98573.88;;;3.99;100.00
70506;BME280;58032;49.820;6.274;2023-05-03T00:11:09;98573.91;;;4.03;100.00
70506;BME280;58032;49.820;6.274;2023-05-03T00:13:36;98579.34;;;3.77;100.00
70506;BME280;58032;49.820;6.274;2023-05-03T00:16:03;98568.94;;;3.71;100.00
70506;BME280;58032;49.820;6.274;2023-05-03T00:18:30;98563.28;;;3.56;100.00
70506;BME280;58032;49.820;6.274;2023-05-03T00:20:58;98571.22;;;3.54;100.00
70506;BME280;58032;49.820;6.274;2023-05-03T00:23:25;98571.63;;;3.53;100.00
70506;BME280;58032;49.820;6.274;2023-05-03T00:25:55;98564.47;;;3.55;100.00
70506;BME280;58032;49.820;6.274;2023-05-03T00:28:24;98561.66;;;3.48;100.00
70506;BME280;58032;49.820;6.274;2023-05-03T00:30:51;98560.47;;;3.49;100.00
70506;BME280;58032;49.820;6.274;2023-05-03T00:33:18;98568.06;;;3.52;100.00
70506;BME280;58032;49.820;6.274;2023-05-03T00:35:45;98569.09;;;3.29;100.00
70506;BME280;58032;49.820;6.274;2023-05-03T00:38:12;98562.34;;;3.34;100.00
70506;BME280;58032;49.820;6.274;2023-05-03T00:40:42;98560.66;;;3.22;100.00
70506;BME280;58032;49.820;6.274;2023-05-03T00:43:11;98554.28;;;3.18;100.00
70506;BME280;58032;49.820;6.274;2023-05-03T00:45:39;98554.78;;;3.31;100.00
70506;BME280;58032;49.820;6.274;2023-05-03T00:48:06;98549.22;;;3.35;100.00
70506;BME280;58032;49.820;6.274;2023-05-03T00:50:35;98548.41;;;3.34;100.00
70506;BME280;58032;49.820;6.274;2023-05-03T00:53:02;98554.41;;;3.36;100.00
70506;BME280;58032;49.820;6.274;2023-05-03T00:55:29;98558.00;;;3.37;100.00
70506;BME280;58032;49.820;6.274;2023-05-03T00:57:59;98565.94;;;3.35;100.00
70506;BME280;58032;49.820;6.274;2023-05-03T01:00:26;98558.72;;;3.26;100.00
70506;BME280;58032;49.820;6.274;2023-05-03T01:02:53;98550.41;;;3.33;100.00
70506;BME280;58032;49.820;6.274;2023-05-03T01:05:20;98545.59;;;3.27;100.00
70506;BME280;58032;49.820;6.274;2023-05-03T01:07:58;98545.59;;;3.27;100.00
70506;BME280;58032;49.820;6.274;2023-05-03T01:10:47;98551.53;;;3.22;100.00
70506;BME280;58032;49.820;6.274;2023-05-03T01:15:58;98549.06;;;3.09;100.00
70506;BME280;58032;49.820;6.274;2023-05-03T01:18:37;98552.16;;;3.00;100.00
70506;BME280;58032;49.820;6.274;2023-05-03T01:21:06;98553.69;;;2.94;100.00
70506;BME280;58032;49.820;6.274;2023-05-03T01:23:56;98553.22;;;2.89;100.00
70506;BME280;58032;49.820;6.274;2023-05-03T01:26:26;98553.97;;;2.82;100.00
70506;BME280;58032;49.820;6.274;2023-05-03T01:28:54;98552.81;;;2.83;100.00
70506;BME280;58032;49.820;6.274;2023-05-03T01:31:52;98562.31;;;2.78;100.00
70506;BME280;58032;49.820;6.274;2023-05-03T01:34:32;98566.66;;;2.76;100.00
70506;BME280;58032;49.820;6.274;2023-05-03T01:37:03;98559.41;;;2.67;100.00
70506;BME280;58032;49.820;6.274;2023-05-03T01:39:36;98550.28;;;2.71;100.00
70506;BME280;58032;49.820;6.274;2023-05-03T01:42:06;98554.75;;;2.79;100.00
70506;BME280;58032;49.820;6.274;2023-05-03T01:44:33;98552.34;;;2.77;100.00
70506;BME280;58032;49.820;6.274;2023-05-03T01:47:02;98555.03;;;2.66;100.00
70506;BME280;58032;49.820;6.274;2023-05-03T01:49:29;98547.50;;;2.71;100.00
70506;BME280;58032;49.820;6.274;2023-05-03T01:51:55;98552.25;;;2.66;100.00
70506;BME280;58032;49.820;6.274;2023-05-03T01:54:22;98549.06;;;2.68;100.00
70506;BME280;58032;49.820;6.274;2023-05-03T01:56:50;98552.25;;;2.66;100.00
70506;BME280;58032;49.820;6.274;2023-05-03T01:59:17;98560.44;;;2.52;100.00
70506;BME280;58032;49.820;6.274;2023-05-03T02:01:44;98556.13;;;2.58;100.00
70506;BME280;58032;49.820;6.274;2023-05-03T02:04:11;98556.09;;;2.55;100.00
70506;BME280;58032;49.820;6.274;2023-05-03T02:06:38;98556.06;;;2.51;100.00
70506;BME280;58032;49.820;6.274;2023-05-03T02:09:04;98565.16;;;2.48;100.00
70506;BME280;58032;49.820;6.274;2023-05-03T02:11:31;98564.81;;;2.53;100.00
70506;BME280;58032;49.820;6.274;2023-05-03T02:13:58;98562.41;;;2.51;100.00
70506;BME280;58032;49.820;6.274;2023-05-03T02:16:25;98567.94;;;2.48;100.00
70506;BME280;58032;49.820;6.274;2023-05-03T02:18:52;98567.13;;;2.44;100.00
70506;BME280;58032;49.820;6.274;2023-05-03T02:21:20;98561.50;;;2.40;100.00
70506;BME280;58032;49.820;6.274;2023-05-03T02:23:46;98573.00;;;2.38;100.00
70506;BME280;58032;49.820;6.274;2023-05-03T02:26:13;98561.94;;;2.46;100.00
70506;BME280;58032;49.820;6.274;2023-05-03T02:28:40;98557.53;;;2.37;100.00
70506;BME280;58032;49.820;6.274;2023-05-03T02:31:07;98564.53;;;2.28;100.00
70506;BME280;58032;49.820;6.274;2023-05-03T02:33:34;98563.31;;;2.25;100.00
70506;BME280;58032;49.820;6.274;2023-05-03T02:36:01;98569.28;;;2.24;100.00
70506;BME280;58032;49.820;6.274;2023-05-03T02:38:28;98567.75;;;2.30;100.00
70506;BME280;58032;49.820;6.274;2023-05-03T02:40:55;98570.09;;;2.28;100.00
70506;BME280;58032;49.820;6.274;2023-05-03T02:43:22;98569.38;;;2.34;100.00
70506;BME280;58032;49.820;6.274;2023-05-03T02:45:49;98561.44;;;2.33;100.00
70506;BME280;58032;49.820;6.274;2023-05-03T02:48:16;98567.34;;;2.31;100.00
70506;BME280;58032;49.820;6.274;2023-05-03T02:50:43;98564.50;;;2.24;100.00
70506;BME280;58032;49.820;6.274;2023-05-03T02:53:10;98567.59;;;2.15;100.00
70506;BME280;58032;49.820;6.274;2023-05-03T02:55:38;98571.97;;;2.16;100.00
70506;BME280;58032;49.820;6.274;2023-05-03T02:58:05;98576.66;;;2.12;100.00
70506;BME280;58032;49.820;6.274;2023-05-03T03:00:33;98573.06;;;2.08;100.00
70506;BME280;58032;49.820;6.274;2023-05-03T03:03:00;98572.09;;;1.97;100.00
70506;BME280;58032;49.820;6.274;2023-05-03T03:05:27;98573.28;;;1.96;100.00
70506;BME280;58032;49.820;6.274;2023-05-03T03:07:53;98567.44;;;2.04;100.00
70506;BME280;58032;49.820;6.274;2023-05-03T03:10:20;98562.50;;;1.90;100.00
70506;BME280;58032;49.820;6.274;2023-05-03T03:12:47;98561.03;;;2.00;100.00
70506;BME280;58032;49.820;6.274;2023-05-03T03:15:23;98556.34;;;2.04;100.00
70506;BME280;58032;49.820;6.274;2023-05-03T03:17:50;98557.44;;;1.96;100.00
70506;BME280;58032;49.820;6.274;2023-05-03T03:20:17;98551.44;;;1.94;100.00
70506;BME280;58032;49.820;6.274;2023-05-03T03:22:46;98547.53;;;1.99;100.00
70506;BME280;58032;49.820;6.274;2023-05-03T03:25:13;98547.50;;;1.95;100.00
70506;BME280;58032;49.820;6.274;2023-05-03T03:27:40;98539.47;;;1.86;100.00
70506;BME280;58032;49.820;6.274;2023-05-03T03:30:07;98542.47;;;1.74;100.00
70506;BME280;58032;49.820;6.274;2023-05-03T03:32:42;98539.97;;;1.65;100.00
70506;BME280;58032;49.820;6.274;2023-05-03T03:35:14;98543.28;;;1.74;100.00
70506;BME280;58032;49.820;6.274;2023-05-03T03:37:41;98540.84;;;1.73;100.00
70506;BME280;58032;49.820;6.274;2023-05-03T03:40:08;98536.84;;;1.70;100.00
70506;BME280;58032;49.820;6.274;2023-05-03T03:42:36;98536.13;;;1.73;100.00
70506;BME280;58032;49.820;6.274;2023-05-03T03:45:03;98539.28;;;1.72;100.00
70506;BME280;58032;49.820;6.274;2023-05-03T03:47:31;98534.38;;;1.62;100.00
70506;BME280;58032;49.820;6.274;2023-05-03T03:49:59;98539.44;;;1.56;100.00
70506;BME280;58032;49.820;6.274;2023-05-03T03:52:29;98538.50;;;1.45;100.00
70506;BME280;58032;49.820;6.274;2023-05-03T03:54:56;98538.13;;;1.46;100.00
70506;BME280;58032;49.820;6.274;2023-05-03T03:57:23;98534.22;;;1.51;100.00
70506;BME280;58032;49.820;6.274;2023-05-03T03:59:51;98524.69;;;1.48;100.00
70506;BME280;58032;49.820;6.274;2023-05-03T04:02:18;98525.81;;;1.44;100.00
70506;BME280;58032;49.820;6.274;2023-05-03T04:04:46;98517.13;;;1.49;100.00
70506;BME280;58032;49.820;6.274;2023-05-03T04:07:15;98510.81;;;1.48;100.00
70506;BME280;58032;49.820;6.274;2023-05-03T04:09:43;98511.59;;;1.49;100.00
70506;BME280;58032;49.820;6.274;2023-05-03T04:12:10;98507.97;;;1.45;100.00
70506;BME280;58032;49.820;6.274;2023-05-03T04:14:39;98513.56;;;1.48;100.00
70506;BME280;58032;49.820;6.274;2023-05-03T04:17:06;98513.03;;;1.69;100.00
70506;BME280;58032;49.820;6.274;2023-05-03T04:19:33;98505.34;;;1.89;100.00
70506;BME280;58032;49.820;6.274;2023-05-03T04:22:01;98497.63;;;2.06;100.00
70506;BME280;58032;49.820;6.274;2023-05-03T04:24:28;98505.09;;;2.40;100.00
70506;BME280;58032;49.820;6.274;2023-05-03T04:26:56;98509.53;;;2.44;100.00
70506;BME280;58032;49.820;6.274;2023-05-03T04:29:28;98502.47;;;2.13;100.00
70506;BME280;58032;49.820;6.274;2023-05-03T04:31:55;98504.06;;;2.14;100.00
70506;BME280;58032;49.820;6.274;2023-05-03T04:34:22;98494.09;;;2.50;100.00
70506;BME280;58032;49.820;6.274;2023-05-03T04:36:52;98503.13;;;2.85;100.00
70506;BME280;58032;49.820;6.274;2023-05-03T04:39:21;98506.44;;;3.01;100.00
70506;BME280;58032;49.820;6.274;2023-05-03T04:41:48;98513.09;;;3.45;100.00
70506;BME280;58032;49.820;6.274;2023-05-03T04:44:15;98511.41;;;4.07;100.00
70506;BME280;58032;49.820;6.274;2023-05-03T04:46:44;98518.72;;;3.53;100.00
70506;BME280;58032;49.820;6.274;2023-05-03T04:49:14;98514.63;;;3.32;100.00
70506;BME280;58032;49.820;6.274;2023-05-03T04:51:41;98510.88;;;3.76;100.00
70506;BME280;58032;49.820;6.274;2023-05-03T04:54:07;98521.09;;;3.54;100.00
70506;BME280;58032;49.820;6.274;2023-05-03T04:56:34;98516.72;;;3.53;100.00
70506;BME280;58032;49.820;6.274;2023-05-03T04:59:10;98523.84;;;4.39;100.00
70506;BME280;58032;49.820;6.274;2023-05-03T05:01:37;98535.84;;;4.54;100.00
70506;BME280;58032;49.820;6.274;2023-05-03T05:04:06;98521.63;;;6.91;100.00
70506;BME280;58032;49.820;6.274;2023-05-03T05:06:44;98526.97;;;6.71;100.00
70506;BME280;58032;49.820;6.274;2023-05-03T05:09:24;98509.94;;;5.26;100.00
70506;BME280;58032;49.820;6.274;2023-05-03T05:11:54;98503.56;;;5.29;100.00
70506;BME280;58032;49.820;6.274;2023-05-03T05:14:25;98508.75;;;4.72;100.00
70506;BME280;58032;49.820;6.274;2023-05-03T05:16:54;98505.53;;;4.52;100.00
70506;BME280;58032;49.820;6.274;2023-05-03T05:19:20;98518.16;;;4.03;100.00
70506;BME280;58032;49.820;6.274;2023-05-03T05:21:47;98519.34;;;3.98;100.00
70506;BME280;58032;49.820;6.274;2023-05-03T05:24:15;98518.22;;;4.24;100.00
70506;BME280;58032;49.820;6.274;2023-05-03T05:26:43;98531.72;;;4.08;100.00
70506;BME280;58032;49.820;6.274;2023-05-03T05:29:12;98529.50;;;4.97;100.00
70506;BME280;58032;49.820;6.274;2023-05-03T05:31:39;98532.47;;;6.18;100.00
70506;BME280;58032;49.820;6.274;2023-05-03T05:34:07;98544.69;;;7.93;100.00
70506;BME280;58032;49.820;6.274;2023-05-03T05:36:35;98549.44;;;8.65;100.00
70506;BME280;58032;49.820;6.274;2023-05-03T05:39:03;98550.09;;;9.95;100.00
70506;BME280;58032;49.820;6.274;2023-05-03T05:41:31;98567.59;;;9.35;100.00
70506;BME280;58032;49.820;6.274;2023-05-03T05:43:58;98560.28;;;7.59;100.00
70506;BME280;58032;49.820;6.274;2023-05-03T05:46:26;98558.19;;;7.22;100.00
70506;BME280;58032;49.820;6.274;2023-05-03T05:48:53;98560.28;;;6.51;100.00
70506;BME280;58032;49.820;6.274;2023-05-03T05:51:21;98567.38;;;5.37;100.00
70506;BME280;58032;49.820;6.274;2023-05-03T05:53:48;98573.75;;;5.31;100.00
70506;BME280;58032;49.820;6.274;2023-05-03T05:56:16;98577.34;;;5.06;100.00
70506;BME280;58032;49.820;6.274;2023-05-03T05:58:43;98574.16;;;5.07;100.00
70506;BME280;58032;49.820;6.274;2023-05-03T06:01:10;98572.16;;;5.15;100.00
70506;BME280;58032;49.820;6.274;2023-05-03T06:03:39;98572.16;;;5.08;100.00
70506;BME280;58032;49.820;6.274;2023-05-03T06:06:07;98566.59;;;5.15;100.00
70506;BME280;58032;49.820;6.274;2023-05-03T06:08:35;98572.97;;;5.30;100.00
70506;BME280;58032;49.820;6.274;2023-05-03T06:11:01;98573.38;;;5.39;100.00
70506;BME280;58032;49.820;6.274;2023-05-03T06:13:29;98572.47;;;5.82;100.00
70506;BME280;58032;49.820;6.274;2023-05-03T06:15:58;98569.25;;;6.06;100.00
70506;BME280;58032;49.820;6.274;2023-05-03T06:18:25;98578.50;;;5.74;100.00
70506;BME280;58032;49.820;6.274;2023-05-03T06:20:52;98574.50;;;5.78;100.00
70506;BME280;58032;49.820;6.274;2023-05-03T06:23:19;98574.84;;;6.06;100.00
70506;BME280;58032;49.820;6.274;2023-05-03T06:25:47;98583.31;;;5.73;100.00
70506;BME280;58032;49.820;6.274;2023-05-03T06:28:15;98569.28;;;5.95;100.00
70506;BME280;58032;49.820;6.274;2023-05-03T06:30:48;98572.06;;;6.02;100.00
70506;BME280;58032;49.820;6.274;2023-05-03T06:33:15;98574.88;;;5.95;100.00
70506;BME280;58032;49.820;6.274;2023-05-03T06:35:44;98574.44;;;6.07;100.00
70506;BME280;58032;49.820;6.274;2023-05-03T06:38:14;98568.72;;;6.47;100.00
70506;BME280;58032;49.820;6.274;2023-05-03T06:40:41;98572.75;;;6.35;100.00
70506;BME280;58032;49.820;6.274;2023-05-03T06:43:07;98570.38;;;7.01;100.00
70506;BME280;58032;49.820;6.274;2023-05-03T06:45:42;98573.94;;;7.05;100.00
70506;BME280;58032;49.820;6.274;2023-05-03T06:48:09;98570.09;;;6.84;100.00
70506;BME280;58032;49.820;6.274;2023-05-03T06:50:37;98574.66;;;6.53;100.00
70506;BME280;58032;49.820;6.274;2023-05-03T06:53:04;98569.06;;;6.49;100.00
70506;BME280;58032;49.820;6.274;2023-05-03T06:55:31;98564.19;;;7.24;100.00
70506;BME280;58032;49.820;6.274;2023-05-03T06:57:58;98571.72;;;7.34;100.00
70506;BME280;58032;49.820;6.274;2023-05-03T07:00:25;98567.13;;;7.55;100.00
70506;BME280;58032;49.820;6.274;2023-05-03T07:02:53;98562.13;;;7.73;100.00
70506;BME280;58032;49.820;6.274;2023-05-03T07:05:19;98557.47;;;7.98;100.00
70506;BME280;58032;49.820;6.274;2023-05-03T07:07:46;98561.84;;;8.33;100.00
70506;BME280;58032;49.820;6.274;2023-05-03T07:10:13;98558.09;;;8.47;100.00
70506;BME280;58032;49.820;6.274;2023-05-03T07:12:40;98557.06;;;8.30;100.00
70506;BME280;58032;49.820;6.274;2023-05-03T07:15:08;98550.34;;;8.86;100.00
70506;BME280;58032;49.820;6.274;2023-05-03T07:17:34;98548.84;;;8.16;100.00
70506;BME280;58032;49.820;6.274;2023-05-03T07:20:01;98552.47;;;8.13;100.00
70506;BME280;58032;49.820;6.274;2023-05-03T07:22:29;98552.19;;;8.96;100.00
70506;BME280;58032;49.820;6.274;2023-05-03T07:24:56;98560.09;;;8.47;100.00
70506;BME280;58032;49.820;6.274;2023-05-03T07:27:25;98552.84;;;8.15;100.00
70506;BME280;58032;49.820;6.274;2023-05-03T07:29:52;98551.97;;;8.56;100.00
70506;BME280;58032;49.820;6.274;2023-05-03T07:32:19;98557.91;;;8.62;100.00
70506;BME280;58032;49.820;6.274;2023-05-03T07:34:47;98549.53;;;8.58;100.00
70506;BME280;58032;49.820;6.274;2023-05-03T07:37:14;98543.00;;;8.92;100.00
70506;BME280;58032;49.820;6.274;2023-05-03T07:39:41;98545.34;;;9.69;100.00
70506;BME280;58032;49.820;6.274;2023-05-03T07:42:08;98540.63;;;9.42;100.00
70506;BME280;58032;49.820;6.274;2023-05-03T07:44:34;98532.41;;;10.15;100.00
70506;BME280;58032;49.820;6.274;2023-05-03T07:47:01;98531.81;;;10.44;100.00
70506;BME280;58032;49.820;6.274;2023-05-03T07:49:28;98528.69;;;10.42;100.00
70506;BME280;58032;49.820;6.274;2023-05-03T07:51:57;98544.50;;;9.72;100.00
70506;BME280;58032;49.820;6.274;2023-05-03T07:54:24;98540.03;;;9.74;100.00
70506;BME280;58032;49.820;6.274;2023-05-03T07:56:50;98531.00;;;9.63;100.00
70506;BME280;58032;49.820;6.274;2023-05-03T07:59:18;98514.22;;;10.76;100.00
70506;BME280;58032;49.820;6.274;2023-05-03T08:01:45;98521.81;;;10.03;100.00
70506;BME280;58032;49.820;6.274;2023-05-03T08:04:11;98527.78;;;9.17;100.00
70506;BME280;58032;49.820;6.274;2023-05-03T08:06:39;98522.34;;;9.54;100.00
70506;BME280;58032;49.820;6.274;2023-05-03T08:09:08;98517.47;;;9.98;100.00
70506;BME280;58032;49.820;6.274;2023-05-03T08:11:37;98522.03;;;9.48;100.00
70506;BME280;58032;49.820;6.274;2023-05-03T08:14:04;98512.03;;;10.27;100.00
70506;BME280;58032;49.820;6.274;2023-05-03T08:16:31;98515.38;;;10.42;100.00
70506;BME280;58032;49.820;6.274;2023-05-03T08:18:57;98501.25;;;10.63;100.00
70506;BME280;58032;49.820;6.274;2023-05-03T08:21:24;98503.31;;;10.95;100.00
70506;BME280;58032;49.820;6.274;2023-05-03T08:23:51;98501.31;;;10.96;100.00
70506;BME280;58032;49.820;6.274;2023-05-03T08:26:18;98503.13;;;11.02;100.00
70506;BME280;58032;49.820;6.274;2023-05-03T08:28:47;98499.19;;;11.00;100.00
70506;BME280;58032;49.820;6.274;2023-05-03T08:31:14;98500.63;;;11.54;100.00
70506;BME280;58032;49.820;6.274;2023-05-03T08:33:42;98503.13;;;11.02;100.00
70506;BME280;58032;49.820;6.274;2023-05-03T08:36:09;98498.25;;;10.53;100.00
70506;BME280;58032;49.820;6.274;2023-05-03T08:38:36;98492.91;;;12.30;100.00
70506;BME280;58032;49.820;6.274;2023-05-03T08:41:26;98488.50;;;12.29;100.00
70506;BME280;58032;49.820;6.274;2023-05-03T08:43:56;98488.94;;;10.89;100.00
70506;BME280;58032;49.820;6.274;2023-05-03T08:46:23;98484.56;;;11.05;100.00
70506;BME280;58032;49.820;6.274;2023-05-03T08:48:52;98489.13;;;10.82;100.00
70506;BME280;58032;49.820;6.274;2023-05-03T08:51:21;98490.63;;;11.95;100.00
70506;BME280;58032;49.820;6.274;2023-05-03T08:53:48;98484.03;;;10.93;100.00
70506;BME280;58032;49.820;6.274;2023-05-03T08:56:23;98498.59;;;10.55;100.00
70506;BME280;58032;49.820;6.274;2023-05-03T08:58:51;98483.88;;;10.27;100.00
70506;BME280;58032;49.820;6.274;2023-05-03T09:01:18;98489.75;;;10.73;100.00
70506;BME280;58032;49.820;6.274;2023-05-03T09:03:50;98477.78;;;11.02;100.00
70506;BME280;58032;49.820;6.274;2023-05-03T09:06:21;98477.69;;;11.68;100.00
70506;BME280;58032;49.820;6.274;2023-05-03T09:08:52;98478.72;;;11.12;100.00
70506;BME280;58032;49.820;6.274;2023-05-03T09:11:29;98487.88;;;10.67;100.00
70506;BME280;58032;49.820;6.274;2023-05-03T09:14:16;98493.47;;;10.50;100.00
70506;BME280;58032;49.820;6.274;2023-05-03T09:16:45;98483.16;;;10.80;100.00
70506;BME280;58032;49.820;6.274;2023-05-03T09:19:13;98484.53;;;10.55;100.00
70506;BME280;58032;49.820;6.274;2023-05-03T09:21:43;98483.66;;;11.41;100.00
70506;BME280;58032;49.820;6.274;2023-05-03T09:24:21;98482.50;;;11.38;100.00
70506;BME280;58032;49.820;6.274;2023-05-03T09:26:50;98486.47;;;11.70;100.00
70506;BME280;58032;49.820;6.274;2023-05-03T09:29:33;98488.44;;;10.78;100.00
70506;BME280;58032;49.820;6.274;2023-05-03T09:32:04;98485.34;;;11.05;100.00
70506;BME280;58032;49.820;6.274;2023-05-03T09:34:32;98475.22;;;11.54;100.00
70506;BME280;58032;49.820;6.274;2023-05-03T09:36:59;98475.03;;;10.99;100.00
70506;BME280;58032;49.820;6.274;2023-05-03T09:39:27;98488.25;;;10.85;100.00
70506;BME280;58032;49.820;6.274;2023-05-03T09:41:53;98475.84;;;10.99;100.00
70506;BME280;58032;49.820;6.274;2023-05-03T09:44:40;98476.44;;;11.40;100.00
70506;BME280;58032;49.820;6.274;2023-05-03T09:47:09;98476.81;;;11.26;100.00
70506;BME280;58032;49.820;6.274;2023-05-03T09:49:37;98473.78;;;10.67;100.00
70506;BME280;58032;49.820;6.274;2023-05-03T09:52:04;98474.19;;;11.02;100.00
70506;BME280;58032;49.820;6.274;2023-05-03T09:54:33;98471.88;;;10.97;100.00
70506;BME280;58032;49.820;6.274;2023-05-03T09:57:07;98461.19;;;11.37;100.00
70506;BME280;58032;49.820;6.274;2023-05-03T09:59:36;98454.84;;;11.92;100.00
70506;BME280;58032;49.820;6.274;2023-05-03T10:02:05;98466.41;;;11.98;100.00
70506;BME280;58032;49.820;6.274;2023-05-03T10:04:42;98464.47;;;11.19;100.00
70506;BME280;58032;49.820;6.274;2023-05-03T10:07:16;98461.09;;;11.41;100.00
70506;BME280;58032;49.820;6.274;2023-05-03T10:09:46;98460.09;;;11.77;100.00
70506;BME280;58032;49.820;6.274;2023-05-03T10:12:13;98472.53;;;12.09;100.00
70506;BME280;58032;49.820;6.274;2023-05-03T10:14:45;98471.91;;;12.70;100.00
70506;BME280;58032;49.820;6.274;2023-05-03T10:17:26;98474.38;;;11.86;100.00
70506;BME280;58032;49.820;6.274;2023-05-03T10:25:34;98471.44;;;11.90;100.00
70506;BME280;58032;49.820;6.274;2023-05-03T10:28:02;98461.53;;;11.69;100.00
70506;BME280;58032;49.820;6.274;2023-05-03T10:30:47;98446.22;;;12.12;100.00
70506;BME280;58032;49.820;6.274;2023-05-03T10:35:48;98453.16;;;12.37;100.00
70506;BME280;58032;49.820;6.274;2023-05-03T10:38:24;98450.50;;;12.04;100.00
70506;BME280;58032;49.820;6.274;2023-05-03T10:40:52;98435.50;;;12.07;100.00
70506;BME280;58032;49.820;6.274;2023-05-03T10:46:01;98436.53;;;12.65;100.00
70506;BME280;58032;49.820;6.274;2023-05-03T10:48:30;98430.94;;;11.97;99.37
70506;BME280;58032;49.820;6.274;2023-05-03T10:53:54;98432.06;;;13.16;98.50
70506;BME280;58032;49.820;6.274;2023-05-03T10:56:20;98435.03;;;13.34;89.15
70506;BME280;58032;49.820;6.274;2023-05-03T10:58:48;98442.78;;;13.21;100.00
70506;BME280;58032;49.820;6.274;2023-05-03T11:01:17;98431.44;;;12.73;97.89
70506;BME280;58032;49.820;6.274;2023-05-03T11:03:57;98438.03;;;12.44;88.90
70506;BME280;58032;49.820;6.274;2023-05-03T11:06:35;98431.75;;;13.01;94.96
70506;BME280;58032;49.820;6.274;2023-05-03T11:09:04;98430.03;;;13.03;92.29
70506;BME280;58032;49.820;6.274;2023-05-03T11:11:35;98433.03;;;12.87;76.33
70506;BME280;58032;49.820;6.274;2023-05-03T11:14:02;98428.38;;;13.41;67.56
70506;BME280;58032;49.820;6.274;2023-05-03T11:16:29;98416.72;;;13.39;72.71
70506;BME280;58032;49.820;6.274;2023-05-03T11:18:58;98424.84;;;13.02;86.27
70506;BME280;58032;49.820;6.274;2023-05-03T11:21:25;98423.06;;;13.65;92.91
70506;BME280;58032;49.820;6.274;2023-05-03T11:23:52;98413.34;;;13.66;96.29
70506;BME280;58032;49.820;6.274;2023-05-03T11:26:19;98408.00;;;13.90;83.19
70506;BME280;58032;49.820;6.274;2023-05-03T11:28:52;98413.25;;;14.01;79.36
70506;BME280;58032;49.820;6.274;2023-05-03T11:31:20;98417.72;;;13.45;91.19
70506;BME280;58032;49.820;6.274;2023-05-03T11:33:48;98395.88;;;13.90;77.91
70506;BME280;58032;49.820;6.274;2023-05-03T11:36:15;98400.50;;;14.28;93.23
70506;BME280;58032;49.820;6.274;2023-05-03T11:38:42;98399.47;;;14.13;82.73
70506;BME280;58032;49.820;6.274;2023-05-03T11:41:14;98405.25;;;13.77;90.32
70506;BME280;58032;49.820;6.274;2023-05-03T11:43:43;98399.47;;;14.13;81.86
70506;BME280;58032;49.820;6.274;2023-05-03T11:46:21;98392.59;;;14.23;75.02
70506;BME280;58032;49.820;6.274;2023-05-03T11:48:49;98387.50;;;14.08;77.13
70506;BME280;58032;49.820;6.274;2023-05-03T11:51:24;98384.69;;;13.86;76.06
70506;BME280;58032;49.820;6.274;2023-05-03T11:53:51;98395.53;;;13.88;87.90
70506;BME280;58032;49.820;6.274;2023-05-03T11:56:18;98387.34;;;14.44;86.28
70506;BME280;58032;49.820;6.274;2023-05-03T11:58:50;98396.81;;;13.87;75.76
70506;BME280;58032;49.820;6.274;2023-05-03T12:01:21;98383.22;;;14.04;77.57
70506;BME280;58032;49.820;6.274;2023-05-03T12:03:57;98382.72;;;13.52;72.73
70506;BME280;58032;49.820;6.274;2023-05-03T12:06:25;98392.31;;;14.30;83.37
70506;BME280;58032;49.820;6.274;2023-05-03T12:08:56;98374.72;;;14.35;71.85
70506;BME280;58032;49.820;6.274;2023-05-03T12:11:23;98365.09;;;14.74;77.58
70506;BME280;58032;49.820;6.274;2023-05-03T12:14:01;98368.63;;;15.06;80.35
70506;BME280;58032;49.820;6.274;2023-05-03T12:16:45;98378.22;;;14.49;72.30
70506;BME280;58032;49.820;6.274;2023-05-03T12:19:28;98360.16;;;14.65;59.44
70506;BME280;58032;49.820;6.274;2023-05-03T12:21:56;98363.59;;;15.28;74.66
70506;BME280;58032;49.820;6.274;2023-05-03T12:24:34;98375.47;;;14.27;66.47
70506;BME280;58032;49.820;6.274;2023-05-03T12:27:04;98357.91;;;15.10;69.78
70506;BME280;58032;49.820;6.274;2023-05-03T12:29:31;98353.84;;;16.52;60.70
70506;BME280;58032;49.820;6.274;2023-05-03T12:31:59;98347.31;;;17.34;57.93
70506;BME280;58032;49.820;6.274;2023-05-03T12:34:28;98339.06;;;17.36;52.37
70506;BME280;58032;49.820;6.274;2023-05-03T12:36:59;98339.72;;;18.65;48.35
70506;BME280;58032;49.820;6.274;2023-05-03T12:39:29;98329.94;;;18.72;43.45
70506;BME280;58032;49.820;6.274;2023-05-03T12:41:58;98338.72;;;17.58;48.39
70506;BME280;58032;49.820;6.274;2023-05-03T12:44:28;98344.63;;;17.54;48.02
70506;BME280;58032;49.820;6.274;2023-05-03T12:46:55;98341.41;;;16.74;51.50
70506;BME280;58032;49.820;6.274;2023-05-03T12:49:22;98339.00;;;16.48;47.54
70506;BME280;58032;49.820;6.274;2023-05-03T12:51:49;98329.66;;;17.05;49.64
70506;BME280;58032;49.820;6.274;2023-05-03T12:54:26;98333.28;;;16.24;47.32
70506;BME280;58032;49.820;6.274;2023-05-03T12:56:52;98328.31;;;17.01;47.82
70506;BME280;58032;49.820;6.274;2023-05-03T12:59:20;98308.59;;;18.67;52.08
70506;BME280;58032;49.820;6.274;2023-05-03T13:01:56;98309.09;;;19.49;46.62
70506;BME280;58032;49.820;6.274;2023-05-03T13:04:26;98314.56;;;17.83;45.54
70506;BME280;58032;49.820;6.274;2023-05-03T13:06:55;98315.72;;;17.47;50.17
70506;BME280;58032;49.820;6.274;2023-05-03T13:09:24;98320.84;;;17.72;49.69
70506;BME280;58032;49.820;6.274;2023-05-03T13:11:55;98313.50;;;16.87;53.62
70506;BME280;58032;49.820;6.274;2023-05-03T13:14:21;98293.78;;;18.28;46.20
70506;BME280;58032;49.820;6.274;2023-05-03T13:16:48;98292.94;;;18.22;49.15
70506;BME280;58032;49.820;6.274;2023-05-03T13:19:16;98292.63;;;17.30;46.81
70506;BME280;58032;49.820;6.274;2023-05-03T13:21:46;98288.34;;;17.49;49.61
70506;BME280;58032;49.820;6.274;2023-05-03T13:24:13;98281.75;;;18.03;48.89